sensor_id;sensor_type;location;lat;lon;timestamp;P1;durP1;ratioP1;P2;durP2;ratioP2
54993;SDS011;40891;47.242;8.648;2022-09-09T00:00:14;5.10;;;0.87;;
54993;SDS011;40891;47.242;8.648;2022-09-09T00:02:44;4.35;;;1.40;;
54993;SDS011;40891;47.242;8.648;2022-09-09T00:05:17;4.13;;;1.00;;
54993;SDS011;40891;47.242;8.648;2022-09-09T00:07:55;4.47;;;1.07;;
54993;SDS011;40891;47.242;8.648;2022-09-09T00:10:28;4.07;;;1.17;;
54993;SDS011;40891;47.242;8.648;2022-09-09T00:18:20;1.93;;;1.37;;
54993;SDS011;40891;47.242;8.648;2022-09-09T00:23:33;4.00;;;1.00;;
54993;SDS011;40891;47.242;8.648;2022-09-09T00:28:50;1.87;;;1.00;;
54993;SDS011;40891;47.242;8.648;2022-09-09T00:31:23;2.40;;;1.02;;
54993;SDS011;40891;47.242;8.648;2022-09-09T00:33:53;6.63;;;1.30;;
54993;SDS011;40891;47.242;8.648;2022-09-09T00:36:21;1.92;;;1.00;;
54993;SDS011;40891;47.242;8.648;2022-09-09T00:38:57;2.35;;;1.08;;
54993;SDS011;40891;47.242;8.648;2022-09-09T00:44:16;6.03;;;1.20;;
54993;SDS011;40891;47.242;8.648;2022-09-09T00:52:28;1.27;;;0.97;;
54993;SDS011;40891;47.242;8.648;2022-09-09T00:55:07;1.97;;;0.97;;
54993;SDS011;40891;47.242;8.648;2022-09-09T00:57:34;3.47;;;1.13;;
54993;SDS011;40891;47.242;8.648;2022-09-09T01:00:22;2.07;;;1.07;;
54993;SDS011;40891;47.242;8.648;2022-09-09T01:05:46;4.17;;;1.07;;
54993;SDS011;40891;47.242;8.648;2022-09-09T01:11:25;2.90;;;1.00;;
54993;SDS011;40891;47.242;8.648;2022-09-09T01:14:05;3.93;;;0.93;;
54993;SDS011;40891;47.242;8.648;2022-09-09T01:16:39;1.53;;;0.97;;
54993;SDS011;40891;47.242;8.648;2022-09-09T01:19:06;3.65;;;0.95;;
54993;SDS011;40891;47.242;8.648;2022-09-09T01:21:39;4.10;;;1.00;;
54993;SDS011;40891;47.242;8.648;2022-09-09T01:26:54;2.57;;;1.00;;
54993;SDS011;40891;47.242;8.648;2022-09-09T01:29:23;8.80;;;1.07;;
54993;SDS011;40891;47.242;8.648;2022-09-09T01:34:18;2.93;;;1.00;;
54993;SDS011;40891;47.242;8.648;2022-09-09T01:36:53;0.90;;;0.80;;
54993;SDS011;40891;47.242;8.648;2022-09-09T01:39:29;1.80;;;0.97;;
54993;SDS011;40891;47.242;8.648;2022-09-09T01:41:55;4.50;;;1.07;;
54993;SDS011;40891;47.242;8.648;2022-09-09T01:44:21;1.93;;;1.00;;
54993;SDS011;40891;47.242;8.648;2022-09-09T01:46:47;3.83;;;1.10;;
54993;SDS011;40891;47.242;8.648;2022-09-09T01:49:13;2.83;;;0.90;;
54993;SDS011;40891;47.242;8.648;2022-09-09T01:51:38;3.63;;;1.10;;
54993;SDS011;40891;47.242;8.648;2022-09-09T01:54:06;4.57;;;1.10;;
54993;SDS011;40891;47.242;8.648;2022-09-09T02:04:43;5.10;;;0.90;;
54993;SDS011;40891;47.242;8.648;2022-09-09T02:07:19;2.07;;;0.87;;
54993;SDS011;40891;47.242;8.648;2022-09-09T02:12:36;2.07;;;0.90;;
54993;SDS011;40891;47.242;8.648;2022-09-09T02:15:13;3.67;;;0.93;;
54993;SDS011;40891;47.242;8.648;2022-09-09T02:18:07;3.73;;;0.90;;
54993;SDS011;40891;47.242;8.648;2022-09-09T02:20:38;3.67;;;1.00;;
54993;SDS011;40891;47.242;8.648;2022-09-09T02:23:05;2.97;;;1.23;;
54993;SDS011;40891;47.242;8.648;2022-09-09T02:25:33;3.47;;;1.10;;
54993;SDS011;40891;47.242;8.648;2022-09-09T02:28:01;5.13;;;1.30;;
54993;SDS011;40891;47.242;8.648;2022-09-09T02:30:32;1.63;;;0.90;;
54993;SDS011;40891;47.242;8.648;2022-09-09T02:32:59;4.32;;;1.00;;
54993;SDS011;40891;47.242;8.648;2022-09-09T02:35:28;4.65;;;0.93;;
54993;SDS011;40891;47.242;8.648;2022-09-09T02:37:57;2.87;;;1.07;;
54993;SDS011;40891;47.242;8.648;2022-09-09T02:40:26;2.08;;;1.00;;
54993;SDS011;40891;47.242;8.648;2022-09-09T02:42:52;1.83;;;1.10;;
54993;SDS011;40891;47.242;8.648;2022-09-09T02:45:20;2.63;;;1.20;;
54993;SDS011;40891;47.242;8.648;2022-09-09T02:47:51;1.87;;;1.20;;
54993;SDS011;40891;47.242;8.648;2022-09-09T02:50:25;4.93;;;1.30;;
54993;SDS011;40891;47.242;8.648;2022-09-09T02:57:59;4.03;;;1.23;;
54993;SDS011;40891;47.242;8.648;2022-09-09T03:00:27;2.45;;;1.13;;
54993;SDS011;40891;47.242;8.648;2022-09-09T03:02:53;3.45;;;1.10;;
54993;SDS011;40891;47.242;8.648;2022-09-09T03:05:19;2.90;;;1.08;;
54993;SDS011;40891;47.242;8.648;2022-09-09T03:07:45;3.45;;;1.25;;
54993;SDS011;40891;47.242;8.648;2022-09-09T03:10:11;3.88;;;1.20;;
54993;SDS011;40891;47.242;8.648;2022-09-09T03:12:36;2.80;;;1.00;;
54993;SDS011;40891;47.242;8.648;2022-09-09T03:15:02;5.18;;;1.40;;
54993;SDS011;40891;47.242;8.648;2022-09-09T03:17:27;2.90;;;1.20;;
54993;SDS011;40891;47.242;8.648;2022-09-09T03:19:53;4.53;;;1.38;;
54993;SDS011;40891;47.242;8.648;2022-09-09T03:22:19;3.03;;;1.40;;
54993;SDS011;40891;47.242;8.648;2022-09-09T03:24:45;1.88;;;1.20;;
54993;SDS011;40891;47.242;8.648;2022-09-09T03:27:11;8.55;;;1.20;;
54993;SDS011;40891;47.242;8.648;2022-09-09T03:29:39;3.00;;;1.02;;
54993;SDS011;40891;47.242;8.648;2022-09-09T03:32:04;4.40;;;0.98;;
54993;SDS011;40891;47.242;8.648;2022-09-09T03:34:30;3.53;;;1.17;;
54993;SDS011;40891;47.242;8.648;2022-09-09T03:36:56;3.00;;;1.02;;
54993;SDS011;40891;47.242;8.648;2022-09-09T03:39:21;2.75;;;1.10;;
54993;SDS011;40891;47.242;8.648;2022-09-09T03:41:47;1.67;;;1.13;;
54993;SDS011;40891;47.242;8.648;2022-09-09T03:44:13;4.03;;;1.10;;
54993;SDS011;40891;47.242;8.648;2022-09-09T03:46:39;4.95;;;1.20;;
54993;SDS011;40891;47.242;8.648;2022-09-09T03:49:04;4.20;;;1.05;;
54993;SDS011;40891;47.242;8.648;2022-09-09T03:51:30;4.93;;;1.52;;
54993;SDS011;40891;47.242;8.648;2022-09-09T03:53:55;5.93;;;1.30;;
54993;SDS011;40891;47.242;8.648;2022-09-09T03:56:21;11.52;;;1.35;;
54993;SDS011;40891;47.242;8.648;2022-09-09T03:58:47;2.05;;;1.42;;
54993;SDS011;40891;47.242;8.648;2022-09-09T04:01:12;5.95;;;1.23;;
54993;SDS011;40891;47.242;8.648;2022-09-09T04:03:39;2.33;;;1.30;;
54993;SDS011;40891;47.242;8.648;2022-09-09T04:06:06;5.43;;;1.40;;
54993;SDS011;40891;47.242;8.648;2022-09-09T04:08:32;2.70;;;1.30;;
54993;SDS011;40891;47.242;8.648;2022-09-09T04:10:59;1.88;;;1.08;;
54993;SDS011;40891;47.242;8.648;2022-09-09T04:13:26;4.30;;;1.15;;
54993;SDS011;40891;47.242;8.648;2022-09-09T04:15:52;5.18;;;1.42;;
54993;SDS011;40891;47.242;8.648;2022-09-09T04:18:19;4.28;;;1.00;;
54993;SDS011;40891;47.242;8.648;2022-09-09T04:20:46;3.65;;;0.90;;
54993;SDS011;40891;47.242;8.648;2022-09-09T04:23:12;2.35;;;1.08;;
54993;SDS011;40891;47.242;8.648;2022-09-09T04:25:38;1.67;;;1.00;;
54993;SDS011;40891;47.242;8.648;2022-09-09T04:28:09;0.70;;;0.70;;
54993;SDS011;40891;47.242;8.648;2022-09-09T04:30:35;2.60;;;1.00;;
54993;SDS011;40891;47.242;8.648;2022-09-09T04:33:00;1.98;;;0.95;;
54993;SDS011;40891;47.242;8.648;2022-09-09T04:35:26;1.27;;;0.98;;
54993;SDS011;40891;47.242;8.648;2022-09-09T04:37:52;3.10;;;1.48;;
54993;SDS011;40891;47.242;8.648;2022-09-09T04:40:17;3.80;;;1.20;;
54993;SDS011;40891;47.242;8.648;2022-09-09T04:42:42;2.00;;;1.17;;
54993;SDS011;40891;47.242;8.648;2022-09-09T04:45:09;4.60;;;1.02;;
54993;SDS011;40891;47.242;8.648;2022-09-09T04:47:36;2.28;;;0.80;;
54993;SDS011;40891;47.242;8.648;2022-09-09T04:50:01;3.00;;;0.90;;
54993;SDS011;40891;47.242;8.648;2022-09-09T04:52:27;1.63;;;0.80;;
54993;SDS011;40891;47.242;8.648;2022-09-09T04:54:53;1.95;;;0.90;;
54993;SDS011;40891;47.242;8.648;2022-09-09T04:57:19;2.97;;;0.90;;
54993;SDS011;40891;47.242;8.648;2022-09-09T04:59:44;3.60;;;1.20;;
54993;SDS011;40891;47.242;8.648;2022-09-09T05:02:10;3.10;;;1.00;;
54993;SDS011;40891;47.242;8.648;2022-09-09T05:04:36;4.30;;;1.02;;
54993;SDS011;40891;47.242;8.648;2022-09-09T05:07:01;4.55;;;1.30;;
54993;SDS011;40891;47.242;8.648;2022-09-09T05:09:26;2.90;;;1.20;;
54993;SDS011;40891;47.242;8.648;2022-09-09T05:11:52;4.72;;;1.20;;
54993;SDS011;40891;47.242;8.648;2022-09-09T05:14:17;5.28;;;1.35;;
54993;SDS011;40891;47.242;8.648;2022-09-09T05:16:44;3.60;;;1.30;;
54993;SDS011;40891;47.242;8.648;2022-09-09T05:19:10;3.15;;;1.05;;
54993;SDS011;40891;47.242;8.648;2022-09-09T05:21:35;1.83;;;1.02;;
54993;SDS011;40891;47.242;8.648;2022-09-09T05:24:00;1.42;;;0.90;;
54993;SDS011;40891;47.242;8.648;2022-09-09T05:26:26;3.33;;;1.25;;
54993;SDS011;40891;47.242;8.648;2022-09-09T05:28:51;1.45;;;1.00;;
54993;SDS011;40891;47.242;8.648;2022-09-09T05:31:17;4.85;;;1.15;;
54993;SDS011;40891;47.242;8.648;2022-09-09T05:33:44;4.80;;;1.20;;
54993;SDS011;40891;47.242;8.648;2022-09-09T05:36:12;4.67;;;1.27;;
54993;SDS011;40891;47.242;8.648;2022-09-09T05:38:39;6.90;;;1.20;;
54993;SDS011;40891;47.242;8.648;2022-09-09T05:41:06;5.40;;;1.17;;
54993;SDS011;40891;47.242;8.648;2022-09-09T05:43:32;4.80;;;1.10;;
54993;SDS011;40891;47.242;8.648;2022-09-09T05:46:08;4.68;;;1.13;;
54993;SDS011;40891;47.242;8.648;2022-09-09T05:48:45;5.20;;;1.20;;
54993;SDS011;40891;47.242;8.648;2022-09-09T05:51:16;7.00;;;1.53;;
54993;SDS011;40891;47.242;8.648;2022-09-09T05:53:46;4.57;;;1.13;;
54993;SDS011;40891;47.242;8.648;2022-09-09T05:56:16;6.88;;;1.60;;
54993;SDS011;40891;47.242;8.648;2022-09-09T05:58:43;3.23;;;1.07;;
54993;SDS011;40891;47.242;8.648;2022-09-09T06:01:10;3.20;;;1.33;;
54993;SDS011;40891;47.242;8.648;2022-09-09T06:03:37;4.32;;;1.30;;
54993;SDS011;40891;47.242;8.648;2022-09-09T06:06:05;2.20;;;1.20;;
54993;SDS011;40891;47.242;8.648;2022-09-09T06:08:36;4.13;;;1.57;;
54993;SDS011;40891;47.242;8.648;2022-09-09T06:11:10;3.00;;;1.40;;
54993;SDS011;40891;47.242;8.648;2022-09-09T06:13:40;4.20;;;1.48;;
54993;SDS011;40891;47.242;8.648;2022-09-09T06:16:10;2.08;;;1.17;;
54993;SDS011;40891;47.242;8.648;2022-09-09T06:18:37;4.07;;;1.20;;
54993;SDS011;40891;47.242;8.648;2022-09-09T06:21:04;2.88;;;1.30;;
54993;SDS011;40891;47.242;8.648;2022-09-09T06:23:31;2.60;;;1.40;;
54993;SDS011;40891;47.242;8.648;2022-09-09T06:26:08;4.15;;;1.30;;
54993;SDS011;40891;47.242;8.648;2022-09-09T06:28:39;2.58;;;1.40;;
54993;SDS011;40891;47.242;8.648;2022-09-09T06:31:06;5.05;;;1.30;;
54993;SDS011;40891;47.242;8.648;2022-09-09T06:33:33;6.60;;;1.50;;
54993;SDS011;40891;47.242;8.648;2022-09-09T06:36:00;3.63;;;1.25;;
54993;SDS011;40891;47.242;8.648;2022-09-09T06:38:27;2.90;;;1.52;;
54993;SDS011;40891;47.242;8.648;2022-09-09T06:40:56;4.28;;;1.50;;
54993;SDS011;40891;47.242;8.648;2022-09-09T06:43:23;2.42;;;1.40;;
54993;SDS011;40891;47.242;8.648;2022-09-09T06:45:55;3.92;;;1.20;;
54993;SDS011;40891;47.242;8.648;2022-09-09T06:48:23;1.75;;;1.25;;
54993;SDS011;40891;47.242;8.648;2022-09-09T06:50:51;6.85;;;1.40;;
54993;SDS011;40891;47.242;8.648;2022-09-09T06:53:26;4.57;;;1.50;;
54993;SDS011;40891;47.242;8.648;2022-09-09T06:55:52;5.50;;;1.55;;
54993;SDS011;40891;47.242;8.648;2022-09-09T06:58:17;9.15;;;1.50;;
54993;SDS011;40891;47.242;8.648;2022-09-09T07:00:43;5.93;;;1.63;;
54993;SDS011;40891;47.242;8.648;2022-09-09T07:03:09;6.30;;;1.58;;
54993;SDS011;40891;47.242;8.648;2022-09-09T07:05:35;4.95;;;1.50;;
54993;SDS011;40891;47.242;8.648;2022-09-09T07:08:00;5.13;;;1.35;;
54993;SDS011;40891;47.242;8.648;2022-09-09T07:10:26;2.90;;;1.20;;
54993;SDS011;40891;47.242;8.648;2022-09-09T07:12:52;3.13;;;1.17;;
54993;SDS011;40891;47.242;8.648;2022-09-09T07:15:18;4.22;;;1.42;;
54993;SDS011;40891;47.242;8.648;2022-09-09T07:17:47;4.25;;;1.30;;
54993;SDS011;40891;47.242;8.648;2022-09-09T07:20:13;3.13;;;1.23;;
54993;SDS011;40891;47.242;8.648;2022-09-09T07:22:39;2.10;;;1.23;;
54993;SDS011;40891;47.242;8.648;2022-09-09T07:25:05;2.00;;;1.20;;
54993;SDS011;40891;47.242;8.648;2022-09-09T07:27:31;3.67;;;1.17;;
54993;SDS011;40891;47.242;8.648;2022-09-09T07:29:56;3.35;;;1.20;;
54993;SDS011;40891;47.242;8.648;2022-09-09T07:32:22;4.63;;;1.02;;
54993;SDS011;40891;47.242;8.648;2022-09-09T07:34:47;2.63;;;0.98;;
54993;SDS011;40891;47.242;8.648;2022-09-09T07:37:13;2.85;;;1.20;;
54993;SDS011;40891;47.242;8.648;2022-09-09T07:39:39;3.55;;;1.02;;
54993;SDS011;40891;47.242;8.648;2022-09-09T07:42:05;1.70;;;1.17;;
54993;SDS011;40891;47.242;8.648;2022-09-09T07:44:30;4.57;;;1.38;;
54993;SDS011;40891;47.242;8.648;2022-09-09T07:46:57;3.80;;;1.20;;
54993;SDS011;40891;47.242;8.648;2022-09-09T07:49:22;5.82;;;1.17;;
54993;SDS011;40891;47.242;8.648;2022-09-09T07:51:49;5.22;;;0.90;;
54993;SDS011;40891;47.242;8.648;2022-09-09T07:54:15;2.75;;;1.00;;
54993;SDS011;40891;47.242;8.648;2022-09-09T07:56:45;2.20;;;1.10;;
54993;SDS011;40891;47.242;8.648;2022-09-09T07:59:11;3.25;;;1.00;;
54993;SDS011;40891;47.242;8.648;2022-09-09T08:01:48;2.50;;;0.98;;
54993;SDS011;40891;47.242;8.648;2022-09-09T08:04:18;3.75;;;1.10;;
54993;SDS011;40891;47.242;8.648;2022-09-09T08:06:50;2.67;;;0.88;;
54993;SDS011;40891;47.242;8.648;2022-09-09T08:09:23;6.20;;;1.40;;
54993;SDS011;40891;47.242;8.648;2022-09-09T08:11:52;1.60;;;0.90;;
54993;SDS011;40891;47.242;8.648;2022-09-09T08:14:18;2.70;;;1.00;;
54993;SDS011;40891;47.242;8.648;2022-09-09T08:16:45;4.22;;;1.05;;
54993;SDS011;40891;47.242;8.648;2022-09-09T08:19:12;6.85;;;1.33;;
54993;SDS011;40891;47.242;8.648;2022-09-09T08:21:40;1.85;;;1.00;;
54993;SDS011;40891;47.242;8.648;2022-09-09T08:24:07;1.10;;;0.90;;
54993;SDS011;40891;47.242;8.648;2022-09-09T08:26:34;1.63;;;0.80;;
54993;SDS011;40891;47.242;8.648;2022-09-09T08:29:02;1.27;;;0.80;;
54993;SDS011;40891;47.242;8.648;2022-09-09T08:31:30;2.38;;;1.02;;
54993;SDS011;40891;47.242;8.648;2022-09-09T08:33:58;1.60;;;1.15;;
54993;SDS011;40891;47.242;8.648;2022-09-09T08:36:25;3.25;;;1.00;;
54993;SDS011;40891;47.242;8.648;2022-09-09T08:38:53;2.22;;;0.90;;
54993;SDS011;40891;47.242;8.648;2022-09-09T08:52:00;1.83;;;0.90;;
54993;SDS011;40891;47.242;8.648;2022-09-09T08:54:28;2.88;;;0.80;;
54993;SDS011;40891;47.242;8.648;2022-09-09T08:56:59;5.70;;;0.90;;
54993;SDS011;40891;47.242;8.648;2022-09-09T08:59:25;1.90;;;0.90;;
54993;SDS011;40891;47.242;8.648;2022-09-09T09:12:46;5.38;;;1.10;;
54993;SDS011;40891;47.242;8.648;2022-09-09T09:15:25;2.72;;;0.93;;
54993;SDS011;40891;47.242;8.648;2022-09-09T09:17:55;1.83;;;0.80;;
54993;SDS011;40891;47.242;8.648;2022-09-09T09:20:22;4.43;;;0.80;;
54993;SDS011;40891;47.242;8.648;2022-09-09T09:22:59;2.60;;;1.05;;
54993;SDS011;40891;47.242;8.648;2022-09-09T09:25:31;2.47;;;0.95;;
54993;SDS011;40891;47.242;8.648;2022-09-09T09:28:02;3.05;;;1.08;;
54993;SDS011;40891;47.242;8.648;2022-09-09T09:30:36;3.53;;;0.80;;
54993;SDS011;40891;47.242;8.648;2022-09-09T09:33:29;4.10;;;0.90;;
54993;SDS011;40891;47.242;8.648;2022-09-09T09:35:54;1.90;;;0.80;;
54993;SDS011;40891;47.242;8.648;2022-09-09T09:38:21;5.40;;;0.90;;
54993;SDS011;40891;47.242;8.648;2022-09-09T09:40:49;3.50;;;1.10;;
54993;SDS011;40891;47.242;8.648;2022-09-09T09:43:35;1.70;;;0.90;;
54993;SDS011;40891;47.242;8.648;2022-09-09T09:46:04;4.28;;;0.98;;
54993;SDS011;40891;47.242;8.648;2022-09-09T09:48:30;3.08;;;0.63;;
54993;SDS011;40891;47.242;8.648;2022-09-09T09:50:58;2.75;;;0.88;;
54993;SDS011;40891;47.242;8.648;2022-09-09T09:53:25;1.98;;;0.57;;
54993;SDS011;40891;47.242;8.648;2022-09-09T09:55:59;1.25;;;0.70;;
54993;SDS011;40891;47.242;8.648;2022-09-09T09:58:27;1.88;;;0.80;;
54993;SDS011;40891;47.242;8.648;2022-09-09T10:00:57;2.58;;;0.60;;
54993;SDS011;40891;47.242;8.648;2022-09-09T10:03:30;1.52;;;0.68;;
54993;SDS011;40891;47.242;8.648;2022-09-09T10:05:57;3.45;;;0.80;;
54993;SDS011;40891;47.242;8.648;2022-09-09T10:08:26;5.50;;;1.20;;
54993;SDS011;40891;47.242;8.648;2022-09-09T10:19:18;3.08;;;1.05;;
54993;SDS011;40891;47.242;8.648;2022-09-09T10:33:10;3.42;;;1.15;;
54993;SDS011;40891;47.242;8.648;2022-09-09T10:36:00;3.28;;;1.00;;
54993;SDS011;40891;47.242;8.648;2022-09-09T10:38:40;3.95;;;1.00;;
54993;SDS011;40891;47.242;8.648;2022-09-09T10:55:31;2.92;;;0.80;;
54993;SDS011;40891;47.242;8.648;2022-09-09T10:58:02;0.88;;;0.70;;
54993;SDS011;40891;47.242;8.648;2022-09-09T11:00:41;1.27;;;0.50;;
54993;SDS011;40891;47.242;8.648;2022-09-09T11:03:20;1.73;;;0.75;;
54993;SDS011;40891;47.242;8.648;2022-09-09T11:05:51;0.95;;;0.50;;
54993;SDS011;40891;47.242;8.648;2022-09-09T11:08:22;4.00;;;0.70;;
54993;SDS011;40891;47.242;8.648;2022-09-09T11:10:55;1.33;;;0.60;;
54993;SDS011;40891;47.242;8.648;2022-09-09T11:16:00;1.25;;;0.40;;
54993;SDS011;40891;47.242;8.648;2022-09-09T11:18:38;1.05;;;0.40;;
54993;SDS011;40891;47.242;8.648;2022-09-09T11:21:07;0.85;;;0.40;;
54993;SDS011;40891;47.242;8.648;2022-09-09T11:23:42;1.85;;;0.60;;
54993;SDS011;40891;47.242;8.648;2022-09-09T11:26:18;2.33;;;0.80;;
54993;SDS011;40891;47.242;8.648;2022-09-09T11:32:10;1.85;;;0.60;;
54993;SDS011;40891;47.242;8.648;2022-09-09T11:34:20;1.05;;;0.50;;
54993;SDS011;40891;47.242;8.648;2022-09-09T11:40:09;1.67;;;0.60;;
54993;SDS011;40891;47.242;8.648;2022-09-09T11:42:39;1.98;;;0.60;;
54993;SDS011;40891;47.242;8.648;2022-09-09T11:47:51;2.78;;;0.60;;
54993;SDS011;40891;47.242;8.648;2022-09-09T11:52:49;1.52;;;0.60;;
54993;SDS011;40891;47.242;8.648;2022-09-09T11:55:26;1.30;;;0.50;;
54993;SDS011;40891;47.242;8.648;2022-09-09T11:58:05;1.73;;;0.70;;
54993;SDS011;40891;47.242;8.648;2022-09-09T12:00:42;3.78;;;0.85;;
54993;SDS011;40891;47.242;8.648;2022-09-09T12:08:43;3.20;;;0.80;;
54993;SDS011;40891;47.242;8.648;2022-09-09T12:11:12;2.28;;;0.60;;
54993;SDS011;40891;47.242;8.648;2022-09-09T12:13:55;1.20;;;0.55;;
54993;SDS011;40891;47.242;8.648;2022-09-09T12:16:30;2.90;;;0.50;;
54993;SDS011;40891;47.242;8.648;2022-09-09T12:19:19;1.17;;;0.52;;
54993;SDS011;40891;47.242;8.648;2022-09-09T12:21:49;4.13;;;0.60;;
54993;SDS011;40891;47.242;8.648;2022-09-09T12:24:26;1.58;;;0.40;;
54993;SDS011;40891;47.242;8.648;2022-09-09T12:26:57;2.22;;;0.70;;
54993;SDS011;40891;47.242;8.648;2022-09-09T12:32:15;1.13;;;0.50;;
54993;SDS011;40891;47.242;8.648;2022-09-09T12:40:05;4.70;;;0.90;;
54993;SDS011;40891;47.242;8.648;2022-09-09T12:42:43;3.15;;;0.60;;
54993;SDS011;40891;47.242;8.648;2022-09-09T12:45:42;3.58;;;0.80;;
54993;SDS011;40891;47.242;8.648;2022-09-09T12:48:06;2.00;;;0.60;;
54993;SDS011;40891;47.242;8.648;2022-09-09T12:50:35;3.10;;;0.73;;
54993;SDS011;40891;47.242;8.648;2022-09-09T12:53:09;1.88;;;0.70;;
54993;SDS011;40891;47.242;8.648;2022-09-09T12:55:48;1.58;;;0.63;;
54993;SDS011;40891;47.242;8.648;2022-09-09T12:58:19;4.22;;;0.45;;
54993;SDS011;40891;47.242;8.648;2022-09-09T13:00:49;1.30;;;0.60;;
54993;SDS011;40891;47.242;8.648;2022-09-09T13:03:21;3.95;;;0.60;;
54993;SDS011;40891;47.242;8.648;2022-09-09T13:05:47;3.17;;;0.80;;
54993;SDS011;40891;47.242;8.648;2022-09-09T13:08:13;1.67;;;0.52;;
54993;SDS011;40891;47.242;8.648;2022-09-09T13:10:41;1.00;;;0.60;;
54993;SDS011;40891;47.242;8.648;2022-09-09T13:13:13;2.03;;;0.63;;
54993;SDS011;40891;47.242;8.648;2022-09-09T13:15:47;2.25;;;0.70;;
54993;SDS011;40891;47.242;8.648;2022-09-09T13:18:14;1.85;;;0.77;;
54993;SDS011;40891;47.242;8.648;2022-09-09T13:20:47;2.40;;;0.57;;
54993;SDS011;40891;47.242;8.648;2022-09-09T13:23:13;1.23;;;0.50;;
54993;SDS011;40891;47.242;8.648;2022-09-09T13:25:42;2.22;;;0.60;;
54993;SDS011;40891;47.242;8.648;2022-09-09T13:28:20;1.50;;;0.45;;
54993;SDS011;40891;47.242;8.648;2022-09-09T13:30:57;2.55;;;0.82;;
54993;SDS011;40891;47.242;8.648;2022-09-09T13:33:29;1.48;;;0.60;;
54993;SDS011;40891;47.242;8.648;2022-09-09T13:35:57;3.55;;;0.70;;
54993;SDS011;40891;47.242;8.648;2022-09-09T13:38:36;1.70;;;0.60;;
54993;SDS011;40891;47.242;8.648;2022-09-09T13:41:22;1.42;;;0.70;;
54993;SDS011;40891;47.242;8.648;2022-09-09T13:43:50;1.35;;;0.60;;
54993;SDS011;40891;47.242;8.648;2022-09-09T13:51:43;2.55;;;0.70;;
54993;SDS011;40891;47.242;8.648;2022-09-09T13:54:12;0.93;;;0.70;;
54993;SDS011;40891;47.242;8.648;2022-09-09T13:56:39;1.48;;;0.70;;
54993;SDS011;40891;47.242;8.648;2022-09-09T13:59:09;1.73;;;0.75;;
54993;SDS011;40891;47.242;8.648;2022-09-09T14:01:37;2.85;;;0.88;;
54993;SDS011;40891;47.242;8.648;2022-09-09T14:04:02;2.67;;;1.00;;
54993;SDS011;40891;47.242;8.648;2022-09-09T14:06:28;3.30;;;1.08;;
54993;SDS011;40891;47.242;8.648;2022-09-09T14:08:54;2.75;;;0.80;;
54993;SDS011;40891;47.242;8.648;2022-09-09T14:11:20;2.25;;;0.82;;
54993;SDS011;40891;47.242;8.648;2022-09-09T14:13:46;3.10;;;0.82;;
54993;SDS011;40891;47.242;8.648;2022-09-09T14:16:12;2.33;;;0.90;;
54993;SDS011;40891;47.242;8.648;2022-09-09T14:18:38;1.25;;;0.70;;
54993;SDS011;40891;47.242;8.648;2022-09-09T14:21:04;2.70;;;0.90;;
54993;SDS011;40891;47.242;8.648;2022-09-09T14:23:29;2.70;;;0.82;;
54993;SDS011;40891;47.242;8.648;2022-09-09T14:25:55;2.35;;;0.90;;
54993;SDS011;40891;47.242;8.648;2022-09-09T14:28:20;2.50;;;0.60;;
54993;SDS011;40891;47.242;8.648;2022-09-09T14:30:46;2.00;;;0.82;;
54993;SDS011;40891;47.242;8.648;2022-09-09T14:33:13;2.00;;;0.90;;
54993;SDS011;40891;47.242;8.648;2022-09-09T14:35:40;2.97;;;1.20;;
54993;SDS011;40891;47.242;8.648;2022-09-09T14:38:06;1.52;;;0.95;;
54993;SDS011;40891;47.242;8.648;2022-09-09T14:40:31;1.40;;;0.73;;
54993;SDS011;40891;47.242;8.648;2022-09-09T14:42:59;3.35;;;1.13;;
54993;SDS011;40891;47.242;8.648;2022-09-09T14:45:25;1.55;;;0.52;;
54993;SDS011;40891;47.242;8.648;2022-09-09T14:47:51;2.58;;;0.90;;
54993;SDS011;40891;47.242;8.648;2022-09-09T14:50:17;2.85;;;0.85;;
54993;SDS011;40891;47.242;8.648;2022-09-09T14:52:43;1.70;;;0.77;;
54993;SDS011;40891;47.242;8.648;2022-09-09T14:55:09;2.50;;;1.00;;
54993;SDS011;40891;47.242;8.648;2022-09-09T14:57:34;4.40;;;0.90;;
54993;SDS011;40891;47.242;8.648;2022-09-09T15:00:00;1.50;;;0.75;;
54993;SDS011;40891;47.242;8.648;2022-09-09T15:02:27;1.23;;;0.80;;
54993;SDS011;40891;47.242;8.648;2022-09-09T15:04:54;0.90;;;0.68;;
54993;SDS011;40891;47.242;8.648;2022-09-09T15:07:22;4.30;;;0.80;;
54993;SDS011;40891;47.242;8.648;2022-09-09T15:09:48;2.22;;;0.80;;
54993;SDS011;40891;47.242;8.648;2022-09-09T15:12:14;2.17;;;0.77;;
54993;SDS011;40891;47.242;8.648;2022-09-09T15:14:40;2.90;;;0.85;;
54993;SDS011;40891;47.242;8.648;2022-09-09T15:17:05;1.67;;;0.75;;
54993;SDS011;40891;47.242;8.648;2022-09-09T15:19:30;1.20;;;0.60;;
54993;SDS011;40891;47.242;8.648;2022-09-09T15:21:57;2.33;;;0.70;;
54993;SDS011;40891;47.242;8.648;2022-09-09T15:24:24;2.58;;;0.77;;
54993;SDS011;40891;47.242;8.648;2022-09-09T15:26:50;1.63;;;0.50;;
54993;SDS011;40891;47.242;8.648;2022-09-09T15:29:16;1.92;;;0.57;;
54993;SDS011;40891;47.242;8.648;2022-09-09T15:31:41;5.10;;;0.73;;
54993;SDS011;40891;47.242;8.648;2022-09-09T15:34:07;1.75;;;0.35;;
54993;SDS011;40891;47.242;8.648;2022-09-09T15:36:33;3.63;;;0.60;;
54993;SDS011;40891;47.242;8.648;2022-09-09T15:39:04;4.15;;;0.57;;
54993;SDS011;40891;47.242;8.648;2022-09-09T15:41:32;1.17;;;0.57;;
54993;SDS011;40891;47.242;8.648;2022-09-09T15:43:57;2.83;;;0.60;;
54993;SDS011;40891;47.242;8.648;2022-09-09T15:46:27;2.90;;;0.73;;
54993;SDS011;40891;47.242;8.648;2022-09-09T15:48:58;3.88;;;0.50;;
54993;SDS011;40891;47.242;8.648;2022-09-09T15:51:28;1.45;;;0.60;;
54993;SDS011;40891;47.242;8.648;2022-09-09T15:53:54;4.22;;;0.70;;
54993;SDS011;40891;47.242;8.648;2022-09-09T15:56:21;2.50;;;0.80;;
54993;SDS011;40891;47.242;8.648;2022-09-09T15:58:48;2.25;;;0.60;;
54993;SDS011;40891;47.242;8.648;2022-09-09T16:01:13;2.42;;;0.50;;
54993;SDS011;40891;47.242;8.648;2022-09-09T16:03:40;2.50;;;0.70;;
54993;SDS011;40891;47.242;8.648;2022-09-09T16:06:12;2.42;;;0.63;;
54993;SDS011;40891;47.242;8.648;2022-09-09T16:08:41;1.25;;;0.70;;
54993;SDS011;40891;47.242;8.648;2022-09-09T16:11:10;3.58;;;0.82;;
54993;SDS011;40891;47.242;8.648;2022-09-09T16:13:40;3.17;;;0.90;;
54993;SDS011;40891;47.242;8.648;2022-09-09T16:16:13;3.13;;;0.70;;
54993;SDS011;40891;47.242;8.648;2022-09-09T16:18:40;1.85;;;0.45;;
54993;SDS011;40891;47.242;8.648;2022-09-09T16:21:07;2.72;;;0.80;;
54993;SDS011;40891;47.242;8.648;2022-09-09T16:23:37;3.70;;;0.60;;
54993;SDS011;40891;47.242;8.648;2022-09-09T16:26:04;2.50;;;0.65;;
54993;SDS011;40891;47.242;8.648;2022-09-09T16:28:30;3.00;;;0.70;;
54993;SDS011;40891;47.242;8.648;2022-09-09T16:30:55;3.22;;;0.80;;
54993;SDS011;40891;47.242;8.648;2022-09-09T16:33:20;1.23;;;0.63;;
54993;SDS011;40891;47.242;8.648;2022-09-09T16:35:45;3.28;;;0.70;;
54993;SDS011;40891;47.242;8.648;2022-09-09T16:38:11;1.50;;;0.60;;
54993;SDS011;40891;47.242;8.648;2022-09-09T16:40:37;2.75;;;0.80;;
54993;SDS011;40891;47.242;8.648;2022-09-09T16:43:03;1.95;;;0.88;;
54993;SDS011;40891;47.242;8.648;2022-09-09T16:45:29;2.28;;;0.80;;
54993;SDS011;40891;47.242;8.648;2022-09-09T16:47:55;4.05;;;0.98;;
54993;SDS011;40891;47.242;8.648;2022-09-09T16:50:20;2.00;;;0.82;;
54993;SDS011;40891;47.242;8.648;2022-09-09T16:52:46;1.67;;;0.60;;
54993;SDS011;40891;47.242;8.648;2022-09-09T16:55:12;4.10;;;0.80;;
54993;SDS011;40891;47.242;8.648;2022-09-09T16:57:37;4.57;;;0.85;;
54993;SDS011;40891;47.242;8.648;2022-09-09T17:00:03;2.33;;;0.65;;
54993;SDS011;40891;47.242;8.648;2022-09-09T17:02:31;1.38;;;0.70;;
54993;SDS011;40891;47.242;8.648;2022-09-09T17:04:56;2.05;;;0.60;;
54993;SDS011;40891;47.242;8.648;2022-09-09T17:07:22;1.15;;;0.60;;
54993;SDS011;40891;47.242;8.648;2022-09-09T17:09:47;3.30;;;0.63;;
54993;SDS011;40891;47.242;8.648;2022-09-09T17:12:13;2.65;;;0.73;;